Time;durP1;ratioP1;P1;durP2;ratioP2;P2;SDS_P1;SDS_P2;PMS_P1;PMS_P2;Temp;Humidity;BMP_temperature;BMP_pressure;BME280_temperature;BME280_humidity;BME280_pressure;Samples;Min_cycle;Max_cycle;Signal;HPM_P1;HPM_P2
2021/08/16 00:00:08;;;;;;;10.83;2.80;;;18.70;99.90;;;19.66;100.00;97634.59;5012312;28;21606;-81
2021/08/16 00:02:37;;;;;;;3.30;2.00;;;18.50;99.90;;;19.66;100.00;97632.75;5016900;28;20466;-81
2021/08/16 00:05:07;;;;;;;5.97;3.10;;;18.50;99.90;;;19.63;100.00;97627.13;5017964;28;20470;-80
2021/08/16 00:07:36;;;;;;;6.47;2.17;;;18.40;99.90;;;19.62;100.00;97639.59;5023358;28;20505;-80
2021/08/16 00:10:05;;;;;;;4.00;2.20;;;18.40;99.90;;;19.59;100.00;97646.22;5020368;28;20568;-81
2021/08/16 00:12:35;;;;;;;3.60;2.10;;;18.40;99.90;;;19.48;100.00;97638.44;5010393;28;20465;-81
2021/08/16 00:15:06;;;;;;;6.37;3.07;;;18.50;99.90;;;19.50;100.00;97634.50;5015852;28;20469;-81
2021/08/16 00:17:34;;;;;;;3.03;2.20;;;18.40;99.90;;;19.53;100.00;97631.34;5023498;28;20920;-81
2021/08/16 00:20:04;;;;;;;11.63;2.80;;;18.40;99.90;;;19.50;100.00;97631.84;5023876;28;20504;-80
2021/08/16 00:22:32;;;;;;;3.80;2.47;;;18.30;99.90;;;19.53;100.00;97631.34;5025488;28;20989;-81
2021/08/16 00:25:01;;;;;;;8.60;2.50;;;18.50;99.90;;;19.55;100.00;97633.72;5022813;28;20589;-80
2021/08/16 00:27:30;;;;;;;3.13;2.20;;;18.60;99.90;;;19.53;100.00;97636.63;5024126;28;20498;-81
2021/08/16 00:29:59;;;;;;;3.30;2.30;;;18.50;99.90;;;19.52;100.00;97634.22;5010107;28;20521;-81
2021/08/16 00:32:28;;;;;;;3.50;2.50;;;18.40;99.90;;;19.47;100.00;97636.84;5013141;28;20532;-81
2021/08/16 00:34:56;;;;;;;4.30;2.00;;;18.40;99.90;;;19.51;100.00;97627.31;5014975;28;20956;-81
2021/08/16 00:37:25;;;;;;;3.60;2.57;;;18.50;99.90;;;19.46;100.00;97633.41;5024027;28;20693;-81
2021/08/16 00:39:53;;;;;;;4.90;2.63;;;18.40;99.90;;;19.46;100.00;97638.69;5021197;28;20485;-80
2021/08/16 00:42:22;;;;;;;3.93;2.17;;;18.30;99.90;;;19.47;100.00;97631.53;5017849;28;20466;-80
2021/08/16 00:44:51;;;;;;;3.10;2.50;;;18.50;99.90;;;19.50;100.00;97637.16;5016522;28;20466;-81
2021/08/16 00:47:22;;;;;;;4.10;2.20;;;18.60;99.90;;;19.52;100.00;97637.69;5025161;28;20932;-81
2021/08/16 00:49:50;;;;;;;4.60;2.73;;;18.50;99.90;;;19.48;100.00;97636.59;5015625;28;20525;-81
2021/08/16 00:52:19;;;;;;;5.43;2.60;;;18.40;99.90;;;19.40;100.00;97647.63;5013279;28;20749;-80
2021/08/16 00:54:48;;;;;;;15.40;2.80;;;18.40;99.90;;;19.34;100.00;97638.03;5012953;28;20471;-81
2021/08/16 00:57:17;;;;;;;5.13;3.10;;;18.40;99.90;;;19.40;100.00;97647.63;5008018;28;21125;-81
2021/08/16 00:59:46;;;;;;;2.87;2.40;;;18.40;99.90;;;19.42;100.00;97645.56;5013848;28;20552;-81
2021/08/16 01:02:15;;;;;;;8.40;2.73;;;18.50;99.90;;;19.44;100.00;97640.00;5010234;28;20466;-81
2021/08/16 01:04:45;;;;;;;8.70;2.93;;;18.60;99.90;;;19.29;100.00;97637.19;5015586;28;20462;-81
2021/08/16 01:07:13;;;;;;;6.63;3.37;;;18.40;99.90;;;19.33;100.00;97636.41;5016985;28;20504;-81
2021/08/16 01:09:42;;;;;;;6.83;3.33;;;18.60;99.90;;;19.37;100.00;97652.63;5020455;28;20462;-80
2021/08/16 01:12:11;;;;;;;11.53;4.97;;;18.60;99.90;;;19.45;100.00;97650.34;5020665;28;20470;-81
2021/08/16 01:14:40;;;;;;;9.57;3.53;;;18.60;99.90;;;19.52;100.00;97660.75;5016062;28;20523;-81
2021/08/16 01:17:10;;;;;;;6.37;3.37;;;18.60;99.90;;;19.59;100.00;97662.13;5017444;28;20465;-81
2021/08/16 01:19:39;;;;;;;8.67;3.57;;;18.60;99.90;;;19.57;100.00;97658.16;5020354;28;20950;-81
2021/08/16 01:22:09;;;;;;;7.30;4.40;;;18.60;99.90;;;19.58;100.00;97660.53;5015642;28;21074;-81
2021/08/16 01:24:38;;;;;;;8.40;4.03;;;18.70;99.90;;;19.59;100.00;97672.75;5021308;28;20538;-80
2021/08/16 01:27:11;;;;;;;11.80;4.80;;;18.70;99.90;;;19.64;100.00;97673.84;5020811;28;20497;-81
2021/08/16 01:29:41;;;;;;;7.77;4.20;;;18.70;99.90;;;19.70;100.00;97670.97;5019425;28;20465;-80
2021/08/16 01:32:10;;;;;;;7.30;4.37;;;18.80;99.90;;;19.73;100.00;97672.31;5012962;28;20849;-81
2021/08/16 01:34:38;;;;;;;8.33;4.17;;;18.80;99.90;;;19.79;100.00;97687.22;5021426;28;20466;-80
2021/08/16 01:37:07;;;;;;;11.43;4.13;;;18.80;99.90;;;19.77;100.00;97684.84;5011607;28;20485;-80
2021/08/16 01:39:35;;;;;;;6.37;3.80;;;19.00;99.90;;;19.76;100.00;97679.75;5012235;28;20543;-81
2021/08/16 01:42:05;;;;;;;7.10;3.20;;;19.00;99.90;;;19.70;100.00;97686.09;5018029;28;20470;-81
2021/08/16 01:44:34;;;;;;;6.17;2.57;;;18.90;99.90;;;19.72;100.00;97676.81;5013204;28;20783;-81
2021/08/16 01:47:03;;;;;;;6.30;2.90;;;18.80;99.90;;;19.71;100.00;97690.34;5017400;28;20489;-81
2021/08/16 01:49:32;;;;;;;8.60;3.10;;;18.80;99.90;;;19.75;100.00;97704.72;5012066;28;20598;-80
2021/08/16 01:52:00;;;;;;;10.07;3.10;;;18.80;99.90;;;19.75;100.00;97696.75;5021522;28;20466;-81
2021/08/16 01:54:29;;;;;;;6.10;2.70;;;18.80;99.90;;;19.77;100.00;97689.34;5023722;28;20946;-81
2021/08/16 01:56:57;;;;;;;4.50;2.80;;;18.90;99.90;;;19.83;100.00;97694.41;5023466;28;20505;-80
2021/08/16 01:59:26;;;;;;;5.30;2.67;;;18.90;99.90;;;19.84;100.00;97697.88;5016532;28;21058;-81
2021/08/16 02:01:55;;;;;;;8.33;3.20;;;19.00;99.90;;;19.84;100.00;97695.22;5021345;28;20500;-81
2021/08/16 02:04:24;;;;;;;3.80;2.10;;;19.00;99.90;;;19.81;100.00;97693.88;5020707;28;20582;-81
2021/08/16 02:06:53;;;;;;;9.50;2.80;;;18.90;99.90;;;19.74;100.00;97693.31;5021284;28;20526;-80
2021/08/16 02:09:21;;;;;;;4.73;2.63;;;18.80;99.90;;;19.65;100.00;97681.53;5015517;28;20498;-81
2021/08/16 02:11:50;;;;;;;7.07;2.80;;;18.70;99.90;;;19.63;100.00;97693.47;5017712;28;20575;-81
2021/08/16 02:14:18;;;;;;;5.00;2.20;;;18.70;99.90;;;19.59;98.99;97687.88;5025473;28;20462;-81
2021/08/16 02:16:47;;;;;;;8.03;2.90;;;18.70;99.90;;;19.55;96.96;97690.22;5020035;28;20465;-81
2021/08/16 02:19:17;;;;;;;7.47;2.60;;;18.80;99.90;;;19.48;97.47;97689.63;5020575;28;20470;-81
2021/08/16 02:21:46;;;;;;;10.50;2.57;;;18.60;99.90;;;19.52;96.75;97692.59;5018054;28;20508;-81
2021/08/16 02:24:14;;;;;;;8.57;2.57;;;18.60;99.90;;;19.52;96.22;97688.09;5018858;28;20470;-81
2021/08/16 02:26:43;;;;;;;7.27;2.80;;;18.70;99.90;;;19.56;96.11;97698.97;5015443;28;20463;-81
2021/08/16 02:29:13;;;;;;;14.13;2.90;;;18.70;99.90;;;19.56;94.64;97699.78;5015723;28;20539;-81
2021/08/16 02:31:41;;;;;;;5.13;2.20;;;18.70;99.90;;;19.50;91.42;97711.41;5018463;28;20921;-81
2021/08/16 02:34:10;;;;;;;5.20;2.27;;;18.50;99.90;;;19.44;88.57;97712.41;5022968;28;20470;-81
2021/08/16 02:36:40;;;;;;;8.30;2.47;;;18.60;99.90;;;19.41;89.32;97706.81;5021364;28;20462;-80
2021/08/16 02:39:08;;;;;;;9.57;2.57;;;18.50;99.90;;;19.37;87.75;97717.06;5023937;28;20932;-81
2021/08/16 02:41:38;;;;;;;8.50;2.63;;;18.50;99.90;;;19.35;87.72;97713.09;5016698;28;20930;-80
2021/08/16 02:44:07;;;;;;;5.40;2.20;;;18.50;99.90;;;19.31;88.44;97720.75;5022433;28;20989;-82
2021/08/16 02:46:35;;;;;;;5.23;2.10;;;18.40;99.90;;;19.30;85.99;97721.78;5023639;28;20520;-80
2021/08/16 02:49:04;;;;;;;7.10;2.20;;;18.50;99.90;;;19.20;87.39;97721.69;5023474;28;20838;-81
2021/08/16 02:51:32;;;;;;;8.57;2.53;;;18.40;99.90;;;19.18;86.95;97713.19;5026556;28;20954;-81
2021/08/16 02:54:02;;;;;;;5.57;2.53;;;18.40;99.90;;;19.21;87.34;97718.00;5024197;28;20783;-81
2021/08/16 02:56:31;;;;;;;9.90;2.70;;;18.30;99.90;;;19.17;86.24;97719.53;5022170;28;20947;-81
2021/08/16 02:58:59;;;;;;;9.17;2.90;;;18.40;99.90;;;19.11;85.06;97717.88;5022080;28;20520;-81
2021/08/16 03:01:28;;;;;;;9.00;2.30;;;18.40;99.90;;;19.09;85.80;97723.44;5010485;28;21032;-81
2021/08/16 03:03:56;;;;;;;6.50;2.30;;;18.30;99.90;;;19.07;86.08;97733.50;5023611;28;20473;-81
2021/08/16 03:06:25;;;;;;;6.40;2.33;;;18.30;99.90;;;19.03;86.06;97737.69;5022443;28;20466;-81
2021/08/16 03:08:53;;;;;;;11.10;2.87;;;18.20;99.90;;;18.98;85.82;97736.84;5011373;28;20616;-81
2021/08/16 03:11:23;;;;;;;5.43;2.47;;;18.20;99.90;;;18.94;86.55;97727.78;5025687;28;21035;-81
2021/08/16 03:13:52;;;;;;;9.37;2.70;;;18.20;99.90;;;18.85;86.28;97729.25;5018057;28;20463;-81
2021/08/16 03:16:21;;;;;;;4.00;1.87;;;18.20;99.90;;;18.86;85.99;97730.84;5025154;28;20477;-81
2021/08/16 03:18:49;;;;;;;9.57;2.77;;;18.10;99.90;;;18.80;86.91;97737.97;5022929;28;20509;-81
2021/08/16 03:21:18;;;;;;;9.77;2.67;;;17.90;99.90;;;18.66;85.44;97735.91;5019586;28;20490;-81
2021/08/16 03:23:46;;;;;;;9.00;2.10;;;17.90;99.90;;;18.60;86.03;97741.13;5020158;28;20501;-81
2021/08/16 03:26:15;;;;;;;8.93;2.40;;;17.90;99.90;;;18.60;86.13;97733.19;5017651;28;20540;-82
2021/08/16 03:28:44;;;;;;;7.00;2.80;;;17.90;99.90;;;18.55;85.88;97730.50;5023833;28;20502;-81
2021/08/16 03:31:13;;;;;;;6.70;2.70;;;17.80;99.90;;;18.57;85.97;97728.38;5025610;28;21016;-81
2021/08/16 03:33:42;;;;;;;8.53;2.20;;;17.80;99.90;;;18.56;86.02;97734.75;5017808;28;20548;-81
2021/08/16 03:36:10;;;;;;;9.10;2.60;;;17.70;99.90;;;18.61;86.67;97734.00;5028395;28;20474;-82
2021/08/16 03:38:39;;;;;;;9.00;2.70;;;17.70;99.90;;;18.59;88.16;97744.84;5026083;28;20473;-81
2021/08/16 03:41:08;;;;;;;9.83;2.50;;;17.80;99.90;;;18.60;88.52;97748.31;5022128;28;20879;-81
2021/08/16 03:43:36;;;;;;;9.30;2.60;;;17.60;99.90;;;18.55;89.51;97745.56;5018619;28;21885;-81
2021/08/16 03:46:06;;;;;;;7.87;2.07;;;17.60;99.90;;;18.56;90.37;97750.63;5017254;28;21015;-81
2021/08/16 03:48:34;;;;;;;6.70;2.37;;;17.60;99.90;;;18.51;90.37;97750.56;5014995;28;20498;-81
2021/08/16 03:51:03;;;;;;;9.50;2.40;;;17.60;99.90;;;18.48;91.31;97752.88;5020592;28;20506;-81
2021/08/16 03:53:31;;;;;;;4.03;2.00;;;17.50;99.90;;;18.46;91.75;97758.41;5025513;28;20490;-81
2021/08/16 03:56:00;;;;;;;4.70;2.40;;;17.50;99.90;;;18.45;91.97;97758.66;5014622;28;20471;-81
2021/08/16 03:58:28;;;;;;;8.63;2.07;;;17.40;99.90;;;18.38;92.62;97765.97;5020064;28;20524;-81
2021/08/16 04:00:57;;;;;;;10.03;2.87;;;17.30;99.90;;;18.35;92.93;97756.66;5021719;28;20525;-81
2021/08/16 04:03:27;;;;;;;12.63;2.47;;;17.30;99.90;;;18.30;93.73;97758.44;5013514;28;20472;-81
2021/08/16 04:05:55;;;;;;;7.43;2.13;;;17.20;99.90;;;18.23;94.18;97763.91;5021517;28;20513;-81
2021/08/16 04:08:24;;;;;;;10.83;3.10;;;17.10;99.90;;;18.11;94.63;97760.56;5014217;28;20522;-81
2021/08/16 04:10:52;;;;;;;7.37;2.63;;;17.20;99.90;;;18.14;95.27;97769.84;5012173;28;20473;-81
2021/08/16 04:13:21;;;;;;;11.10;2.17;;;17.10;99.90;;;18.04;95.84;97770.50;5018321;28;20961;-81
2021/08/16 04:15:49;;;;;;;8.47;2.83;;;17.10;99.90;;;18.00;95.98;97785.25;5014854;28;20732;-81
2021/08/16 04:18:18;;;;;;;8.50;2.90;;;17.10;99.90;;;17.96;96.58;97784.94;5017690;28;20482;-81
2021/08/16 04:20:48;;;;;;;7.23;2.40;;;16.90;99.90;;;17.90;97.31;97785.09;5013949;28;20466;-81
2021/08/16 04:23:17;;;;;;;6.33;2.30;;;16.90;99.90;;;17.88;97.96;97787.16;5019696;28;20458;-81
2021/08/16 04:25:45;;;;;;;6.67;2.13;;;16.90;99.90;;;17.88;98.30;97787.97;5018484;28;20463;-81
2021/08/16 04:28:13;;;;;;;9.37;2.30;;;16.80;99.90;;;17.80;99.22;97790.22;5020757;28;20555;-81
2021/08/16 04:30:42;;;;;;;8.93;3.00;;;16.60;99.90;;;17.76;99.05;97794.38;5016450;28;20467;-81
2021/08/16 04:33:11;;;;;;;11.13;2.80;;;16.70;99.90;;;17.73;99.37;97794.84;5019135;28;20469;-81
2021/08/16 04:35:39;;;;;;;6.70;2.60;;;16.60;99.90;;;17.69;99.58;97799.00;5024999;28;20527;-81
2021/08/16 04:38:10;;;;;;;5.13;2.33;;;16.60;99.90;;;17.70;99.78;97798.75;5021941;28;20463;-81
2021/08/16 04:40:38;;;;;;;6.87;2.50;;;16.60;99.90;;;17.68;100.00;97797.41;5019819;28;20539;-81
2021/08/16 04:43:07;;;;;;;7.83;2.80;;;16.60;99.90;;;17.65;100.00;97797.88;5024803;28;20466;-81
2021/08/16 04:45:35;;;;;;;12.07;2.27;;;16.50;99.90;;;17.68;100.00;97797.41;5020515;28;20465;-81
2021/08/16 04:48:05;;;;;;;8.43;2.20;;;16.50;99.90;;;17.63;100.00;97798.13;5012800;28;20536;-81
2021/08/16 04:50:33;;;;;;;5.83;2.33;;;16.40;99.90;;;17.62;100.00;97803.66;5019242;28;20474;-81
2021/08/16 04:53:02;;;;;;;8.73;2.37;;;16.40;99.90;;;17.53;100.00;97806.63;5015331;28;20466;-84
2021/08/16 04:55:32;;;;;;;9.00;2.33;;;16.50;99.90;;;17.57;100.00;97801.69;5024702;28;20708;-81
2021/08/16 04:58:00;;;;;;;8.37;2.63;;;16.50;99.90;;;17.54;100.00;97813.53;5018151;28;20461;-81
2021/08/16 05:00:29;;;;;;;6.10;2.30;;;16.40;99.90;;;17.53;100.00;97811.91;5017134;28;20982;-80
2021/08/16 05:02:58;;;;;;;5.73;2.37;;;16.40;99.90;;;17.56;100.00;97811.47;5020682;28;21034;-81
2021/08/16 05:05:30;;;;;;;6.50;2.33;;;16.50;99.90;;;17.58;100.00;97813.91;5022345;28;20474;-82
2021/08/16 05:08:01;;;;;;;7.30;2.07;;;16.50;99.90;;;17.58;100.00;97814.69;5021497;28;20482;-81
2021/08/16 05:10:32;;;;;;;5.90;2.47;;;16.50;99.90;;;17.60;100.00;97807.31;5019137;28;20904;-81
2021/08/16 05:13:02;;;;;;;6.60;2.50;;;16.60;99.90;;;17.59;100.00;97818.97;5023207;28;20508;-81
2021/08/16 05:15:30;;;;;;;8.43;2.57;;;16.70;99.90;;;17.65;100.00;97819.84;5011562;28;20490;-80
2021/08/16 05:18:02;;;;;;;2.90;1.77;;;16.70;99.90;;;17.68;100.00;97823.84;5025673;28;20523;-81
2021/08/16 05:20:31;;;;;;;8.43;2.60;;;16.70;99.90;;;17.73;100.00;97824.75;5028818;28;20523;-81
2021/08/16 05:23:00;;;;;;;5.97;2.57;;;16.70;99.90;;;17.75;100.00;97827.16;5020170;28;20979;-81
2021/08/16 05:25:28;;;;;;;5.53;2.20;;;16.80;99.90;;;17.81;100.00;97831.47;5019306;28;21124;-81
2021/08/16 05:27:59;;;;;;;10.00;2.87;;;16.80;99.90;;;17.86;100.00;97815.72;5023920;28;20955;-81
2021/08/16 05:30:27;;;;;;;10.30;2.50;;;16.90;99.90;;;17.87;100.00;97820.78;5026234;28;20555;-81
2021/08/16 05:32:56;;;;;;;5.90;2.40;;;17.00;99.90;;;17.92;100.00;97833.25;5031816;28;20520;-81
2021/08/16 05:35:24;;;;;;;6.10;2.17;;;17.00;99.90;;;17.95;100.00;97835.44;5027557;28;20466;-81
2021/08/16 05:37:55;;;;;;;6.70;2.23;;;17.10;99.90;;;18.00;99.62;97832.88;5021612;28;20529;-81
2021/08/16 05:40:24;;;;;;;6.53;2.73;;;17.00;99.90;;;18.01;99.22;97835.28;5022117;28;20522;-81
2021/08/16 05:42:52;;;;;;;7.60;2.00;;;17.10;99.90;;;18.02;98.65;97831.59;5031286;28;20477;-81
2021/08/16 05:45:22;;;;;;;6.23;2.50;;;17.10;99.90;;;18.05;98.42;97833.75;5022931;28;21005;-81
2021/08/16 05:47:50;;;;;;;6.97;2.10;;;17.10;99.90;;;18.09;98.68;97826.13;5022461;28;20905;-81
2021/08/16 05:50:20;;;;;;;11.27;5.03;;;17.10;99.90;;;18.08;98.67;97835.16;5021487;28;20505;-79
2021/08/16 05:52:48;;;;;;;6.40;2.57;;;17.10;99.90;;;18.04;97.60;97834.00;5021180;28;20467;-82
2021/08/16 05:55:17;;;;;;;8.50;2.60;;;17.00;99.90;;;18.09;97.73;97847.31;5024865;28;20457;-81
2021/08/16 05:57:46;;;;;;;8.50;2.30;;;17.10;99.90;;;18.11;97.28;97832.00;5025393;28;20508;-81
2021/08/16 06:00:18;;;;;;;7.33;2.60;;;17.20;99.90;;;18.15;97.47;97827.84;5028028;28;20913;-82
2021/08/16 06:02:48;;;;;;;9.30;2.57;;;17.20;99.90;;;18.15;97.46;97835.78;5028005;28;20474;-81
2021/08/16 06:05:17;;;;;;;6.40;2.37;;;17.40;99.90;;;18.16;97.62;97832.06;5013153;28;21034;-81
2021/08/16 06:07:45;;;;;;;132.20;63.40;;;17.40;99.90;;;18.19;98.09;97823.66;5021995;28;21003;-81
2021/08/16 06:10:14;;;;;;;11.10;2.93;;;17.50;99.90;;;18.24;98.71;97833.53;5022814;28;20555;-82
2021/08/16 06:12:42;;;;;;;7.40;2.60;;;17.50;99.90;;;18.24;98.97;97838.81;5015912;28;20475;-82
2021/08/16 06:15:12;;;;;;;6.07;2.07;;;17.50;99.90;;;18.22;100.00;97841.72;5026707;28;20466;-82
2021/08/16 06:17:41;;;;;;;6.97;2.20;;;17.50;99.90;;;18.25;99.36;97851.03;5016836;28;20522;-82
2021/08/16 06:20:13;;;;;;;6.77;2.03;;;17.50;99.90;;;18.26;99.11;97847.31;5016250;28;20475;-82
2021/08/16 06:22:41;;;;;;;6.30;2.50;;;17.40;99.90;;;18.26;98.88;97848.13;5018654;28;20517;-81
2021/08/16 06:25:11;;;;;;;7.00;2.57;;;17.30;99.90;;;18.32;98.73;97838.44;5018445;28;20466;-81
2021/08/16 06:27:39;;;;;;;5.10;1.90;;;17.40;99.90;;;18.34;99.06;97850.38;5018858;28;20466;-82
2021/08/16 06:30:10;;;;;;;6.40;2.20;;;17.50;99.90;;;18.30;99.16;97843.94;5015346;28;20858;-81
2021/08/16 06:32:40;;;;;;;6.30;2.30;;;17.40;99.90;;;18.32;98.75;97851.66;5022981;28;21022;-82
2021/08/16 06:35:14;;;;;;;8.17;2.50;;;17.50;99.90;;;18.37;99.05;97843.78;5019724;28;20519;-82
2021/08/16 06:37:45;;;;;;;4.90;1.70;;;17.50;99.90;;;18.40;99.10;97854.69;5020434;28;20512;-82
2021/08/16 06:40:14;;;;;;;3.83;2.03;;;17.50;99.90;;;18.38;99.28;97859.44;5018507;28;20856;-82
2021/08/16 06:42:43;;;;;;;7.23;2.07;;;17.50;99.90;;;18.32;99.62;97871.00;5019651;28;20999;-82
2021/08/16 06:45:12;;;;;;;5.57;1.80;;;17.40;99.90;;;18.36;99.61;97860.75;5017435;28;20470;-81
2021/08/16 06:47:41;;;;;;;6.50;2.43;;;17.50;99.90;;;18.41;99.89;97858.97;5016309;28;20509;-82
2021/08/16 06:50:11;;;;;;;5.83;1.83;;;17.50;99.90;;;18.45;99.73;97857.44;5017191;28;20513;-81
2021/08/16 06:52:40;;;;;;;6.80;2.80;;;17.50;99.90;;;18.48;99.48;97856.94;5025623;28;20458;-82
2021/08/16 06:55:09;;;;;;;5.93;2.03;;;17.60;99.90;;;18.50;100.00;97856.72;5024434;28;20544;-82
2021/08/16 06:57:37;;;;;;;4.90;2.03;;;17.70;99.90;;;18.50;100.00;97862.81;5025747;28;20466;-82
2021/08/16 07:00:08;;;;;;;7.67;2.30;;;17.70;99.90;;;18.47;100.00;97871.22;5017874;28;21207;-82
2021/08/16 07:02:36;;;;;;;12.70;2.87;;;17.50;99.90;;;18.49;100.00;97865.72;5020369;28;20463;-82
2021/08/16 07:05:07;;;;;;;7.80;2.10;;;17.60;99.90;;;18.44;100.00;97869.06;5027180;28;20458;-82
2021/08/16 07:07:37;;;;;;;9.33;2.20;;;17.50;99.90;;;18.44;100.00;97863.78;5014544;28;20987;-82
2021/08/16 07:10:07;;;;;;;6.37;2.27;;;17.50;99.90;;;18.46;100.00;97874.13;5013838;28;20851;-82
2021/08/16 07:12:36;;;;;;;5.27;2.40;;;17.50;99.90;;;18.46;100.00;97867.00;5017164;28;20539;-82
2021/08/16 07:15:05;;;;;;;8.23;2.40;;;17.50;99.90;;;18.44;100.00;97855.81;5014546;28;20466;-82
2021/08/16 07:17:33;;;;;;;9.27;2.40;;;17.50;99.90;;;18.44;100.00;97873.56;5017947;28;20470;-81
2021/08/16 07:20:02;;;;;;;7.13;2.47;;;17.50;99.90;;;18.46;100.00;97879.44;5024970;28;20532;-82
2021/08/16 07:22:31;;;;;;;5.63;2.30;;;17.50;99.90;;;18.43;100.00;97875.41;5021778;28;20474;-82
2021/08/16 07:25:00;;;;;;;3.80;1.50;;;17.50;99.90;;;18.43;100.00;97880.69;5018698;28;20470;-82
2021/08/16 07:27:29;;;;;;;5.00;2.30;;;17.70;99.90;;;18.48;100.00;97872.03;5018884;28;20610;-82
2021/08/16 07:29:57;;;;;;;22.10;2.83;;;17.80;99.90;;;18.51;100.00;97872.38;5015999;28;20490;-82
2021/08/16 07:32:26;;;;;;;9.70;2.53;;;17.70;99.90;;;18.45;100.00;97873.31;5022228;28;20462;-82
2021/08/16 07:34:54;;;;;;;7.93;3.30;;;17.60;99.90;;;18.43;100.00;97870.09;5025253;28;20458;-82
2021/08/16 07:37:23;;;;;;;8.23;2.73;;;17.50;99.90;;;18.36;100.00;97880.06;5024182;28;20952;-82
2021/08/16 07:39:51;;;;;;;7.10;2.80;;;17.50;99.90;;;18.36;100.00;97877.41;5018432;28;20489;-81
2021/08/16 07:42:23;;;;;;;6.47;2.20;;;17.50;99.90;;;18.36;100.00;97874.75;5018327;28;20466;-81
2021/08/16 07:44:53;;;;;;;13.40;2.50;;;17.50;99.90;;;18.43;100.00;97880.69;5012646;28;21038;-81
2021/08/16 07:47:21;;;;;;;5.20;2.00;;;17.60;99.90;;;18.37;100.00;97880.84;5021958;28;20975;-81
2021/08/16 07:49:50;;;;;;;7.60;2.80;;;17.60;99.90;;;18.30;100.00;97869.63;5018627;28;20854;-81
2021/08/16 07:52:18;;;;;;;9.40;2.40;;;17.60;99.90;;;18.31;100.00;97877.34;5013461;28;20466;-81
2021/08/16 07:54:47;;;;;;;8.60;2.10;;;17.50;99.90;;;18.38;100.00;97877.19;5011349;28;20975;-81
2021/08/16 07:57:15;;;;;;;7.97;2.97;;;17.60;99.90;;;18.42;100.00;97867.72;5015024;28;20520;-81
2021/08/16 07:59:45;;;;;;;6.40;2.40;;;17.40;99.90;;;18.46;100.00;97867.00;5015758;28;20462;-81
2021/08/16 08:02:14;;;;;;;8.40;2.40;;;17.50;99.90;;;18.46;100.00;97872.28;5017410;28;20489;-82
2021/08/16 08:04:42;;;;;;;9.60;2.70;;;17.50;99.90;;;18.53;100.00;97859.69;5017494;28;20465;-81
2021/08/16 08:07:11;;;;;;;8.43;2.67;;;17.60;99.90;;;18.60;100.00;97862.97;5016768;28;20521;-82
2021/08/16 08:09:39;;;;;;;6.03;2.30;;;17.70;99.90;;;18.65;100.00;97858.81;5012289;28;20478;-81
2021/08/16 08:12:08;;;;;;;6.40;2.50;;;17.80;99.90;;;18.68;100.00;97872.38;5020126;28;20489;-82
2021/08/16 08:14:36;;;;;;;9.10;3.00;;;17.80;99.90;;;18.76;100.00;97857.91;5018290;28;20838;-82
2021/08/16 08:17:06;;;;;;;5.43;2.30;;;17.90;99.90;;;18.80;100.00;97862.50;5016892;28;20497;-84
2021/08/16 08:19:35;;;;;;;6.73;2.80;;;17.90;99.90;;;18.83;100.00;97869.13;5020472;28;20474;-82
2021/08/16 08:22:04;;;;;;;15.67;2.90;;;17.90;99.90;;;18.79;100.00;97863.53;5010418;28;20463;-81
2021/08/16 08:24:32;;;;;;;6.77;2.70;;;17.90;99.90;;;18.84;100.00;97860.16;5010441;28;21026;-81
2021/08/16 08:27:01;;;;;;;7.97;2.47;;;18.00;99.90;;;18.92;100.00;97867.66;5013797;28;20485;-81
2021/08/16 08:29:29;;;;;;;10.87;3.03;;;18.00;99.90;;;18.98;100.00;97867.50;5022477;28;20486;-81
2021/08/16 08:31:58;;;;;;;6.97;2.93;;;18.10;99.90;;;19.04;100.00;97868.38;5021530;28;20548;-81
2021/08/16 08:34:28;;;;;;;8.57;2.93;;;18.20;99.90;;;19.06;100.00;97866.25;5010766;28;20479;-81
2021/08/16 08:36:57;;;;;;;12.70;3.37;;;18.10;99.90;;;19.12;100.00;97867.97;5020899;28;21024;-81
2021/08/16 08:39:25;;;;;;;9.60;2.60;;;18.20;99.90;;;19.17;100.00;97875.97;5024164;28;20847;-82
2021/08/16 08:41:59;;;;;;;8.90;2.17;;;18.30;99.90;;;19.14;100.00;97871.16;5019701;28;20488;-81
2021/08/16 08:44:29;;;;;;;15.90;2.90;;;18.20;99.90;;;19.20;100.00;97875.47;5013589;28;20470;-82
2021/08/16 08:46:57;;;;;;;7.13;2.00;;;18.30;99.90;;;19.13;100.00;97885.44;5015833;28;21187;-81
2021/08/16 08:49:28;;;;;;;9.57;3.10;;;18.20;99.90;;;19.13;100.00;97888.09;5014694;28;20990;-82
2021/08/16 08:51:56;;;;;;;10.53;2.77;;;18.20;99.90;;;19.16;100.00;97890.25;5020936;28;20498;-82
2021/08/16 08:54:25;;;;;;;9.40;2.30;;;18.20;99.90;;;19.21;100.00;97892.97;5014203;28;20508;-81
2021/08/16 08:57:21;;;;;;;9.73;2.70;;;18.30;99.90;;;19.15;100.00;97893.97;5023080;28;20541;-81
2021/08/16 08:59:49;;;;;;;6.23;2.40;;;18.20;99.90;;;19.19;100.00;97895.09;5014385;28;20470;-81
2021/08/16 09:02:18;;;;;;;10.57;3.40;;;18.30;99.90;;;19.24;100.00;97894.34;5015795;28;21026;-81
2021/08/16 09:04:53;;;;;;;7.80;2.87;;;18.40;99.90;;;19.23;100.00;97901.47;5014595;28;20554;-81
2021/08/16 09:07:33;;;;;;;7.57;3.30;;;18.50;99.90;;;19.27;100.00;97896.50;5018748;28;20517;-82
2021/08/16 09:10:04;;;;;;;13.70;3.30;;;18.40;99.90;;;19.26;100.00;97895.72;5021613;28;20466;-82
2021/08/16 09:12:35;;;;;;;6.93;3.20;;;18.40;99.90;;;19.31;100.00;97898.41;5025871;28;20567;-82
2021/08/16 09:15:15;;;;;;;8.10;2.90;;;18.50;99.90;;;19.33;100.00;97892.88;5028854;28;20528;-82
2021/08/16 09:17:44;;;;;;;7.53;2.43;;;18.50;99.90;;;19.35;100.00;97886.28;5017490;28;20475;-81
2021/08/16 09:20:20;;;;;;;6.80;2.83;;;18.40;99.90;;;19.39;100.00;97883.94;5022644;28;20462;-81
2021/08/16 09:22:58;;;;;;;7.60;2.90;;;18.50;99.90;;;19.35;100.00;97891.56;5028938;28;20470;-81
2021/08/16 09:25:31;;;;;;;11.30;2.43;;;18.40;99.90;;;19.32;100.00;97873.50;5023236;28;20469;-82
2021/08/16 09:28:00;;;;;;;10.10;3.10;;;18.40;99.90;;;19.35;100.00;97883.63;5027669;28;20841;-81
2021/08/16 09:30:37;;;;;;;6.10;2.50;;;18.40;99.90;;;19.38;100.00;97875.16;5026072;28;20487;-81
2021/08/16 09:33:18;;;;;;;9.90;2.87;;;18.40;99.90;;;19.38;100.00;97880.47;5029344;28;20499;-81
2021/08/16 09:35:53;;;;;;;10.87;3.03;;;18.40;99.90;;;19.39;100.00;97874.13;5017702;28;20596;-82
2021/08/16 09:38:38;;;;;;;5.83;2.60;;;18.40;99.90;;;19.45;100.00;97869.69;5019996;28;20490;-82
2021/08/16 09:41:20;;;;;;;7.20;3.20;;;18.50;99.90;;;19.50;100.00;97867.94;5015943;28;20529;-82
2021/08/16 09:43:49;;;;;;;5.60;2.70;;;18.60;99.90;;;19.43;100.00;97872.63;5016711;28;20481;-81
2021/08/16 09:46:19;;;;;;;15.00;2.90;;;18.60;99.90;;;19.31;100.00;97865.78;5016603;28;20536;-82
2021/08/16 09:48:57;;;;;;;6.40;2.60;;;18.40;99.90;;;19.37;100.00;97875.41;5013007;28;20470;-81
2021/08/16 09:51:28;;;;;;;10.80;4.97;;;18.40;99.90;;;19.40;100.00;97875.72;5017754;28;20524;-82
2021/08/16 09:53:59;;;;;;;7.33;3.07;;;18.40;99.90;;;19.49;100.00;97868.97;5016321;28;20955;-81
2021/08/16 09:56:29;;;;;;;6.93;2.33;;;18.50;99.90;;;19.55;100.00;97865.31;5018770;28;20462;-81
2021/08/16 09:58:58;;;;;;;9.67;2.47;;;18.60;99.90;;;19.57;100.00;97876.50;5021712;28;20471;-81
2021/08/16 10:01:29;;;;;;;10.70;2.87;;;18.60;99.90;;;19.65;100.00;97869.13;5020807;28;20474;-82
2021/08/16 10:03:58;;;;;;;8.73;2.27;;;18.70;99.90;;;19.68;100.00;97868.66;5022511;28;21029;-82
2021/08/16 10:06:29;;;;;;;7.40;2.50;;;18.80;99.90;;;19.78;100.00;97866.91;5018289;28;21042;-81
2021/08/16 10:08:59;;;;;;;8.60;3.90;;;19.00;99.90;;;19.90;100.00;97880.00;5019667;28;20873;-81
2021/08/16 10:11:29;;;;;;;6.70;2.50;;;19.10;99.90;;;19.87;100.00;97872.53;5015171;28;20552;-82
2021/08/16 10:13:58;;;;;;;10.30;3.37;;;19.00;99.90;;;19.95;100.00;97872.91;5015591;28;20470;-81
2021/08/16 10:16:35;;;;;;;4.77;2.20;;;19.10;99.90;;;20.02;100.00;97862.09;5017982;28;20475;-82
2021/08/16 10:19:08;;;;;;;14.27;2.80;;;19.20;99.90;;;20.07;99.83;97870.88;5028820;28;20469;-81
2021/08/16 10:21:40;;;;;;;14.10;2.60;;;19.20;99.90;;;20.18;99.29;97858.50;5016468;28;20990;-81